sensor_id;sensor_type;location;lat;lon;timestamp;temperature;humidity
17795;DHT22;9021;50.882;4.326;2023-08-08T00:01:31;16.20;99.90
17795;DHT22;9021;50.882;4.326;2023-08-08T00:03:56;16.10;99.90
17795;DHT22;9021;50.882;4.326;2023-08-08T00:06:22;15.90;99.90
17795;DHT22;9021;50.882;4.326;2023-08-08T00:08:47;15.80;99.90
17795;DHT22;9021;50.882;4.326;2023-08-08T00:11:13;15.80;99.90
17795;DHT22;9021;50.882;4.326;2023-08-08T00:13:38;15.80;99.90
17795;DHT22;9021;50.882;4.326;2023-08-08T00:16:04;15.90;99.90
17795;DHT22;9021;50.882;4.326;2023-08-08T00:18:30;15.90;99.90
17795;DHT22;9021;50.882;4.326;2023-08-08T00:20:55;15.80;99.90
17795;DHT22;9021;50.882;4.326;2023-08-08T00:23:21;15.70;99.90
17795;DHT22;9021;50.882;4.326;2023-08-08T00:25:46;15.70;99.90
17795;DHT22;9021;50.882;4.326;2023-08-08T00:28:16;15.70;99.90
17795;DHT22;9021;50.882;4.326;2023-08-08T00:30:42;15.70;99.90
17795;DHT22;9021;50.882;4.326;2023-08-08T00:33:07;15.70;99.90
17795;DHT22;9021;50.882;4.326;2023-08-08T00:35:33;15.70;99.90
17795;DHT22;9021;50.882;4.326;2023-08-08T00:37:58;15.60;99.90
17795;DHT22;9021;50.882;4.326;2023-08-08T00:40:24;15.60;99.90
17795;DHT22;9021;50.882;4.326;2023-08-08T00:42:49;15.60;99.90
17795;DHT22;9021;50.882;4.326;2023-08-08T00:45:15;15.50;99.90
17795;DHT22;9021;50.882;4.326;2023-08-08T00:47:40;15.60;99.90
17795;DHT22;9021;50.882;4.326;2023-08-08T00:50:06;15.60;99.90
17795;DHT22;9021;50.882;4.326;2023-08-08T00:52:32;13.60;99.90
17795;DHT22;9021;50.882;4.326;2023-08-08T00:54:58;15.60;99.90
17795;DHT22;9021;50.882;4.326;2023-08-08T00:57:25;15.60;99.90
17795;DHT22;9021;50.882;4.326;2023-08-08T00:59:50;15.60;99.90
17795;DHT22;9021;50.882;4.326;2023-08-08T01:02:16;15.60;99.90
17795;DHT22;9021;50.882;4.326;2023-08-08T01:04:43;15.50;99.90
17795;DHT22;9021;50.882;4.326;2023-08-08T01:09:43;15.40;99.90
17795;DHT22;9021;50.882;4.326;2023-08-08T01:12:11;15.40;99.90
17795;DHT22;9021;50.882;4.326;2023-08-08T01:14:38;15.30;99.90
17795;DHT22;9021;50.882;4.326;2023-08-08T01:17:05;15.30;99.90
17795;DHT22;9021;50.882;4.326;2023-08-08T01:19:31;15.30;99.90
17795;DHT22;9021;50.882;4.326;2023-08-08T01:21:59;15.30;99.90
17795;DHT22;9021;50.882;4.326;2023-08-08T01:24:26;15.30;99.90
17795;DHT22;9021;50.882;4.326;2023-08-08T01:26:54;15.20;99.90
17795;DHT22;9021;50.882;4.326;2023-08-08T01:29:20;15.20;99.90
17795;DHT22;9021;50.882;4.326;2023-08-08T01:31:46;15.20;99.90
17795;DHT22;9021;50.882;4.326;2023-08-08T01:34:11;15.20;99.90
17795;DHT22;9021;50.882;4.326;2023-08-08T01:39:13;15.20;99.90
17795;DHT22;9021;50.882;4.326;2023-08-08T01:41:39;15.20;99.90
17795;DHT22;9021;50.882;4.326;2023-08-08T01:44:05;15.20;99.90
17795;DHT22;9021;50.882;4.326;2023-08-08T01:46:31;15.20;99.90
17795;DHT22;9021;50.882;4.326;2023-08-08T01:49:00;15.20;99.90
17795;DHT22;9021;50.882;4.326;2023-08-08T01:51:26;15.30;99.90
17795;DHT22;9021;50.882;4.326;2023-08-08T01:53:52;15.20;99.90
17795;DHT22;9021;50.882;4.326;2023-08-08T01:56:17;15.30;99.90
17795;DHT22;9021;50.882;4.326;2023-08-08T01:58:43;15.30;99.90
17795;DHT22;9021;50.882;4.326;2023-08-08T02:01:08;15.30;99.90
17795;DHT22;9021;50.882;4.326;2023-08-08T02:03:34;15.40;99.90
17795;DHT22;9021;50.882;4.326;2023-08-08T02:06:00;15.40;99.90
17795;DHT22;9021;50.882;4.326;2023-08-08T02:08:25;15.40;99.90
17795;DHT22;9021;50.882;4.326;2023-08-08T02:10:51;15.40;99.90
17795;DHT22;9021;50.882;4.326;2023-08-08T02:13:16;15.30;99.90
17795;DHT22;9021;50.882;4.326;2023-08-08T02:15:42;15.30;99.90
17795;DHT22;9021;50.882;4.326;2023-08-08T02:18:07;15.20;99.90
17795;DHT22;9021;50.882;4.326;2023-08-08T02:20:34;15.20;99.90
17795;DHT22;9021;50.882;4.326;2023-08-08T02:22:59;15.20;99.90
17795;DHT22;9021;50.882;4.326;2023-08-08T02:25:25;15.20;99.90
17795;DHT22;9021;50.882;4.326;2023-08-08T02:27:50;15.10;99.90
17795;DHT22;9021;50.882;4.326;2023-08-08T02:30:16;15.10;99.90
17795;DHT22;9021;50.882;4.326;2023-08-08T02:32:41;15.20;99.90
17795;DHT22;9021;50.882;4.326;2023-08-08T02:35:08;15.10;99.90
17795;DHT22;9021;50.882;4.326;2023-08-08T02:37:33;15.00;99.90
17795;DHT22;9021;50.882;4.326;2023-08-08T02:39:59;15.00;99.90
17795;DHT22;9021;50.882;4.326;2023-08-08T02:42:24;15.00;99.90
17795;DHT22;9021;50.882;4.326;2023-08-08T02:44:50;15.00;99.90
17795;DHT22;9021;50.882;4.326;2023-08-08T02:47:16;15.00;99.90
17795;DHT22;9021;50.882;4.326;2023-08-08T02:49:41;15.00;99.90
17795;DHT22;9021;50.882;4.326;2023-08-08T02:52:07;14.90;99.90
17795;DHT22;9021;50.882;4.326;2023-08-08T02:54:32;14.90;99.90
17795;DHT22;9021;50.882;4.326;2023-08-08T02:56:58;15.00;99.90
17795;DHT22;9021;50.882;4.326;2023-08-08T02:59:23;15.10;99.90
17795;DHT22;9021;50.882;4.326;2023-08-08T03:01:49;15.00;99.90
17795;DHT22;9021;50.882;4.326;2023-08-08T03:04:15;14.90;99.90
17795;DHT22;9021;50.882;4.326;2023-08-08T03:06:40;14.90;99.90
17795;DHT22;9021;50.882;4.326;2023-08-08T03:09:06;14.80;99.90
17795;DHT22;9021;50.882;4.326;2023-08-08T03:11:32;14.90;99.90
17795;DHT22;9021;50.882;4.326;2023-08-08T03:13:57;14.90;99.90
17795;DHT22;9021;50.882;4.326;2023-08-08T03:16:23;14.80;99.90
17795;DHT22;9021;50.882;4.326;2023-08-08T03:18:48;14.70;99.90
17795;DHT22;9021;50.882;4.326;2023-08-08T03:21:14;14.70;99.90
17795;DHT22;9021;50.882;4.326;2023-08-08T03:23:39;14.70;99.90
17795;DHT22;9021;50.882;4.326;2023-08-08T03:26:05;14.60;99.90
17795;DHT22;9021;50.882;4.326;2023-08-08T03:28:30;14.60;99.90
17795;DHT22;9021;50.882;4.326;2023-08-08T03:30:56;14.60;99.90
17795;DHT22;9021;50.882;4.326;2023-08-08T03:33:21;14.60;99.90
17795;DHT22;9021;50.882;4.326;2023-08-08T03:35:47;14.70;99.90
17795;DHT22;9021;50.882;4.326;2023-08-08T03:38:12;14.70;99.90
17795;DHT22;9021;50.882;4.326;2023-08-08T03:40:38;14.70;99.90
17795;DHT22;9021;50.882;4.326;2023-08-08T03:43:03;14.70;99.90
17795;DHT22;9021;50.882;4.326;2023-08-08T03:45:29;14.60;99.90
17795;DHT22;9021;50.882;4.326;2023-08-08T03:47:54;14.60;99.90
17795;DHT22;9021;50.882;4.326;2023-08-08T03:50:20;14.60;99.90
17795;DHT22;9021;50.882;4.326;2023-08-08T03:52:45;14.60;99.90
17795;DHT22;9021;50.882;4.326;2023-08-08T03:55:11;14.50;99.90
17795;DHT22;9021;50.882;4.326;2023-08-08T03:57:36;14.50;99.90
17795;DHT22;9021;50.882;4.326;2023-08-08T04:00:02;14.60;99.90
17795;DHT22;9021;50.882;4.326;2023-08-08T04:02:28;14.60;99.90
17795;DHT22;9021;50.882;4.326;2023-08-08T04:04:54;14.70;99.90
17795;DHT22;9021;50.882;4.326;2023-08-08T04:07:19;14.70;99.90
17795;DHT22;9021;50.882;4.326;2023-08-08T04:09:45;14.60;99.90
17795;DHT22;9021;50.882;4.326;2023-08-08T04:12:10;14.60;99.90
17795;DHT22;9021;50.882;4.326;2023-08-08T04:14:36;14.50;99.90
17795;DHT22;9021;50.882;4.326;2023-08-08T04:17:01;14.50;99.90
17795;DHT22;9021;50.882;4.326;2023-08-08T04:19:28;14.60;99.90
17795;DHT22;9021;50.882;4.326;2023-08-08T04:21:53;14.60;99.90
17795;DHT22;9021;50.882;4.326;2023-08-08T04:24:19;14.60;99.90
17795;DHT22;9021;50.882;4.326;2023-08-08T04:26:45;14.60;99.90
17795;DHT22;9021;50.882;4.326;2023-08-08T04:29:10;14.60;99.90
17795;DHT22;9021;50.882;4.326;2023-08-08T04:31:36;14.60;99.90
17795;DHT22;9021;50.882;4.326;2023-08-08T04:34:01;14.60;99.90
17795;DHT22;9021;50.882;4.326;2023-08-08T04:36:27;14.50;99.90
17795;DHT22;9021;50.882;4.326;2023-08-08T04:38:53;14.60;99.90
17795;DHT22;9021;50.882;4.326;2023-08-08T04:41:18;14.60;99.90
17795;DHT22;9021;50.882;4.326;2023-08-08T04:43:44;14.60;99.90
17795;DHT22;9021;50.882;4.326;2023-08-08T04:46:09;14.60;99.90
17795;DHT22;9021;50.882;4.326;2023-08-08T04:48:35;14.70;99.90
17795;DHT22;9021;50.882;4.326;2023-08-08T04:51:02;14.60;99.90
17795;DHT22;9021;50.882;4.326;2023-08-08T04:53:27;14.60;99.90
17795;DHT22;9021;50.882;4.326;2023-08-08T04:55:53;14.60;99.90
17795;DHT22;9021;50.882;4.326;2023-08-08T04:58:18;14.60;99.90
17795;DHT22;9021;50.882;4.326;2023-08-08T05:00:44;14.60;99.90
17795;DHT22;9021;50.882;4.326;2023-08-08T05:03:09;14.60;99.90
17795;DHT22;9021;50.882;4.326;2023-08-08T05:05:35;14.60;99.90
17795;DHT22;9021;50.882;4.326;2023-08-08T05:08:00;14.70;99.90
17795;DHT22;9021;50.882;4.326;2023-08-08T05:10:26;14.70;99.90
17795;DHT22;9021;50.882;4.326;2023-08-08T05:12:51;14.80;99.90
17795;DHT22;9021;50.882;4.326;2023-08-08T05:15:17;14.70;99.90
17795;DHT22;9021;50.882;4.326;2023-08-08T05:17:43;14.80;99.90
17795;DHT22;9021;50.882;4.326;2023-08-08T05:20:08;14.80;99.90
17795;DHT22;9021;50.882;4.326;2023-08-08T05:22:35;14.90;99.90
17795;DHT22;9021;50.882;4.326;2023-08-08T05:25:00;15.00;99.90
17795;DHT22;9021;50.882;4.326;2023-08-08T05:27:26;15.00;99.90
17795;DHT22;9021;50.882;4.326;2023-08-08T05:29:51;15.10;99.90
17795;DHT22;9021;50.882;4.326;2023-08-08T05:32:17;15.10;99.90
17795;DHT22;9021;50.882;4.326;2023-08-08T05:34:42;15.20;99.90
17795;DHT22;9021;50.882;4.326;2023-08-08T05:37:08;15.30;99.90
17795;DHT22;9021;50.882;4.326;2023-08-08T05:39:33;15.40;99.90
17795;DHT22;9021;50.882;4.326;2023-08-08T05:41:59;15.50;99.90
17795;DHT22;9021;50.882;4.326;2023-08-08T05:44:24;15.60;99.90
17795;DHT22;9021;50.882;4.326;2023-08-08T05:46:50;15.60;99.90
17795;DHT22;9021;50.882;4.326;2023-08-08T05:49:15;15.70;99.90
17795;DHT22;9021;50.882;4.326;2023-08-08T05:51:41;15.70;99.90
17795;DHT22;9021;50.882;4.326;2023-08-08T05:54:06;15.60;99.90
17795;DHT22;9021;50.882;4.326;2023-08-08T05:56:35;15.50;99.90
17795;DHT22;9021;50.882;4.326;2023-08-08T05:59:02;15.60;99.90
17795;DHT22;9021;50.882;4.326;2023-08-08T06:01:27;15.60;99.90
17795;DHT22;9021;50.882;4.326;2023-08-08T06:03:53;15.60;99.90
17795;DHT22;9021;50.882;4.326;2023-08-08T06:06:18;15.70;99.90
17795;DHT22;9021;50.882;4.326;2023-08-08T06:08:44;15.70;99.90
17795;DHT22;9021;50.882;4.326;2023-08-08T06:11:09;15.80;99.90
17795;DHT22;9021;50.882;4.326;2023-08-08T06:13:35;18.30;99.90
17795;DHT22;9021;50.882;4.326;2023-08-08T06:16:00;16.10;99.90
17795;DHT22;9021;50.882;4.326;2023-08-08T06:18:27;16.10;99.90
17795;DHT22;9021;50.882;4.326;2023-08-08T06:20:52;16.20;99.90
17795;DHT22;9021;50.882;4.326;2023-08-08T06:23:18;16.40;99.90
17795;DHT22;9021;50.882;4.326;2023-08-08T06:25:43;16.70;99.90
17795;DHT22;9021;50.882;4.326;2023-08-08T06:28:09;17.00;99.90
17795;DHT22;9021;50.882;4.326;2023-08-08T06:30:35;17.30;99.90
17795;DHT22;9021;50.882;4.326;2023-08-08T06:33:00;17.50;99.90
17795;DHT22;9021;50.882;4.326;2023-08-08T06:35:26;17.60;99.90
17795;DHT22;9021;50.882;4.326;2023-08-08T06:37:51;16.30;99.90
17795;DHT22;9021;50.882;4.326;2023-08-08T06:40:17;18.20;99.90
17795;DHT22;9021;50.882;4.326;2023-08-08T06:42:42;18.50;99.90
17795;DHT22;9021;50.882;4.326;2023-08-08T06:45:08;18.60;99.90
17795;DHT22;9021;50.882;4.326;2023-08-08T06:47:35;18.60;99.90
17795;DHT22;9021;50.882;4.326;2023-08-08T06:50:00;18.50;99.90
17795;DHT22;9021;50.882;4.326;2023-08-08T06:52:26;18.50;99.90
17795;DHT22;9021;50.882;4.326;2023-08-08T06:54:51;18.60;99.90
17795;DHT22;9021;50.882;4.326;2023-08-08T06:57:17;18.70;99.90
17795;DHT22;9021;50.882;4.326;2023-08-08T06:59:42;18.80;99.90
17795;DHT22;9021;50.882;4.326;2023-08-08T07:02:08;18.90;99.90
17795;DHT22;9021;50.882;4.326;2023-08-08T07:04:33;18.60;99.90
17795;DHT22;9021;50.882;4.326;2023-08-08T07:06:59;18.60;99.90
17795;DHT22;9021;50.882;4.326;2023-08-08T07:09:24;18.60;99.90
17795;DHT22;9021;50.882;4.326;2023-08-08T07:11:50;18.50;99.90
17795;DHT22;9021;50.882;4.326;2023-08-08T07:14:15;18.50;99.90
17795;DHT22;9021;50.882;4.326;2023-08-08T07:16:41;18.60;99.90
17795;DHT22;9021;50.882;4.326;2023-08-08T07:19:06;18.50;99.90
17795;DHT22;9021;50.882;4.326;2023-08-08T07:21:32;18.40;99.90
17795;DHT22;9021;50.882;4.326;2023-08-08T07:23:57;18.60;99.90
17795;DHT22;9021;50.882;4.326;2023-08-08T07:26:23;18.70;99.90
17795;DHT22;9021;50.882;4.326;2023-08-08T07:28:48;18.50;99.90
17795;DHT22;9021;50.882;4.326;2023-08-08T07:31:14;18.50;99.90
17795;DHT22;9021;50.882;4.326;2023-08-08T07:33:40;18.40;99.90
17795;DHT22;9021;50.882;4.326;2023-08-08T07:36:05;18.40;99.90
17795;DHT22;9021;50.882;4.326;2023-08-08T07:38:30;18.20;99.90
17795;DHT22;9021;50.882;4.326;2023-08-08T07:40:58;18.30;99.90
17795;DHT22;9021;50.882;4.326;2023-08-08T07:43:23;18.30;99.90
17795;DHT22;9021;50.882;4.326;2023-08-08T07:45:49;18.20;99.90
17795;DHT22;9021;50.882;4.326;2023-08-08T07:48:14;18.20;99.90
17795;DHT22;9021;50.882;4.326;2023-08-08T07:50:40;18.30;99.90
17795;DHT22;9021;50.882;4.326;2023-08-08T07:53:06;18.40;99.90
17795;DHT22;9021;50.882;4.326;2023-08-08T07:55:31;18.50;99.90
17795;DHT22;9021;50.882;4.326;2023-08-08T07:57:57;18.50;99.90
17795;DHT22;9021;50.882;4.326;2023-08-08T08:00:23;18.60;99.90
17795;DHT22;9021;50.882;4.326;2023-08-08T08:02:48;18.70;99.90
17795;DHT22;9021;50.882;4.326;2023-08-08T08:05:14;18.70;99.90
17795;DHT22;9021;50.882;4.326;2023-08-08T08:07:39;18.80;99.90
17795;DHT22;9021;50.882;4.326;2023-08-08T08:10:06;18.80;99.90
17795;DHT22;9021;50.882;4.326;2023-08-08T08:12:32;18.80;99.90
17795;DHT22;9021;50.882;4.326;2023-08-08T08:14:58;18.80;99.90
17795;DHT22;9021;50.882;4.326;2023-08-08T08:17:24;18.70;99.90
17795;DHT22;9021;50.882;4.326;2023-08-08T08:19:50;18.60;99.90
17795;DHT22;9021;50.882;4.326;2023-08-08T08:22:15;18.60;99.90
17795;DHT22;9021;50.882;4.326;2023-08-08T08:24:41;18.50;99.90
17795;DHT22;9021;50.882;4.326;2023-08-08T08:27:06;18.60;99.90
17795;DHT22;9021;50.882;4.326;2023-08-08T08:29:32;18.20;99.90
17795;DHT22;9021;50.882;4.326;2023-08-08T08:31:58;18.70;99.90
17795;DHT22;9021;50.882;4.326;2023-08-08T08:34:23;18.80;99.90
17795;DHT22;9021;50.882;4.326;2023-08-08T08:36:49;18.80;99.90
17795;DHT22;9021;50.882;4.326;2023-08-08T08:39:14;18.70;99.90
17795;DHT22;9021;50.882;4.326;2023-08-08T08:41:40;18.60;99.90
17795;DHT22;9021;50.882;4.326;2023-08-08T08:44:05;18.50;99.90
17795;DHT22;9021;50.882;4.326;2023-08-08T08:46:31;18.50;99.90
17795;DHT22;9021;50.882;4.326;2023-08-08T08:48:58;18.40;99.90
17795;DHT22;9021;50.882;4.326;2023-08-08T08:51:25;18.60;99.90
17795;DHT22;9021;50.882;4.326;2023-08-08T08:53:50;18.70;99.90
17795;DHT22;9021;50.882;4.326;2023-08-08T08:56:16;18.90;99.90
17795;DHT22;9021;50.882;4.326;2023-08-08T08:58:42;19.00;99.90
17795;DHT22;9021;50.882;4.326;2023-08-08T09:01:08;19.10;99.90
17795;DHT22;9021;50.882;4.326;2023-08-08T09:03:34;19.30;99.90
17795;DHT22;9021;50.882;4.326;2023-08-08T09:06:00;19.60;99.90
17795;DHT22;9021;50.882;4.326;2023-08-08T09:08:26;19.70;99.90
17795;DHT22;9021;50.882;4.326;2023-08-08T09:10:51;20.00;99.90
17795;DHT22;9021;50.882;4.326;2023-08-08T09:13:17;20.10;99.90
17795;DHT22;9021;50.882;4.326;2023-08-08T09:15:44;20.20;99.90
17795;DHT22;9021;50.882;4.326;2023-08-08T09:18:12;20.40;99.90
17795;DHT22;9021;50.882;4.326;2023-08-08T09:20:37;20.80;99.90
17795;DHT22;9021;50.882;4.326;2023-08-08T09:23:03;21.20;99.90
17795;DHT22;9021;50.882;4.326;2023-08-08T09:25:28;21.40;99.90
17795;DHT22;9021;50.882;4.326;2023-08-08T09:27:54;21.40;99.90
17795;DHT22;9021;50.882;4.326;2023-08-08T09:30:19;21.30;99.90
17795;DHT22;9021;50.882;4.326;2023-08-08T09:32:45;21.40;99.90
17795;DHT22;9021;50.882;4.326;2023-08-08T09:35:10;21.30;99.90
17795;DHT22;9021;50.882;4.326;2023-08-08T09:37:36;21.50;99.90
17795;DHT22;9021;50.882;4.326;2023-08-08T09:40:02;21.70;99.90
17795;DHT22;9021;50.882;4.326;2023-08-08T09:42:30;21.90;99.90
17795;DHT22;9021;50.882;4.326;2023-08-08T09:44:56;21.90;99.90
17795;DHT22;9021;50.882;4.326;2023-08-08T09:47:22;21.70;99.90
17795;DHT22;9021;50.882;4.326;2023-08-08T09:49:48;21.50;99.90
17795;DHT22;9021;50.882;4.326;2023-08-08T09:52:14;21.60;99.90
17795;DHT22;9021;50.882;4.326;2023-08-08T09:54:40;21.70;99.90
17795;DHT22;9021;50.882;4.326;2023-08-08T09:57:06;21.70;99.90
17795;DHT22;9021;50.882;4.326;2023-08-08T09:59:31;21.70;99.90
17795;DHT22;9021;50.882;4.326;2023-08-08T10:01:57;21.60;99.90
17795;DHT22;9021;50.882;4.326;2023-08-08T10:04:23;21.60;99.90
17795;DHT22;9021;50.882;4.326;2023-08-08T10:06:49;21.40;99.90
17795;DHT22;9021;50.882;4.326;2023-08-08T10:09:14;21.30;99.90
17795;DHT22;9021;50.882;4.326;2023-08-08T10:11:40;21.00;99.90
17795;DHT22;9021;50.882;4.326;2023-08-08T10:14:08;21.00;99.90
17795;DHT22;9021;50.882;4.326;2023-08-08T10:16:36;20.90;99.90
17795;DHT22;9021;50.882;4.326;2023-08-08T10:19:02;21.00;99.90
17795;DHT22;9021;50.882;4.326;2023-08-08T10:21:32;20.90;99.90
17795;DHT22;9021;50.882;4.326;2023-08-08T10:24:04;20.90;99.90
17795;DHT22;9021;50.882;4.326;2023-08-08T10:26:30;20.90;99.90
17795;DHT22;9021;50.882;4.326;2023-08-08T10:28:57;20.80;99.90
17795;DHT22;9021;50.882;4.326;2023-08-08T10:31:22;20.80;99.90
17795;DHT22;9021;50.882;4.326;2023-08-08T10:33:48;20.50;99.90
17795;DHT22;9021;50.882;4.326;2023-08-08T10:36:14;20.50;99.90
17795;DHT22;9021;50.882;4.326;2023-08-08T10:38:44;20.70;99.90
17795;DHT22;9021;50.882;4.326;2023-08-08T10:41:10;20.80;99.90
17795;DHT22;9021;50.882;4.326;2023-08-08T10:43:37;20.80;99.90
17795;DHT22;9021;50.882;4.326;2023-08-08T10:46:04;20.80;99.90
17795;DHT22;9021;50.882;4.326;2023-08-08T10:48:29;20.80;99.90
17795;DHT22;9021;50.882;4.326;2023-08-08T10:50:57;20.50;99.90
17795;DHT22;9021;50.882;4.326;2023-08-08T10:53:25;20.50;99.90
17795;DHT22;9021;50.882;4.326;2023-08-08T10:55:58;20.40;99.90
17795;DHT22;9021;50.882;4.326;2023-08-08T10:58:33;20.30;99.90
17795;DHT22;9021;50.882;4.326;2023-08-08T11:00:59;20.30;99.90
17795;DHT22;9021;50.882;4.326;2023-08-08T11:03:25;20.40;99.90
17795;DHT22;9021;50.882;4.326;2023-08-08T11:05:51;20.60;99.90
17795;DHT22;9021;50.882;4.326;2023-08-08T11:08:18;21.10;99.90
17795;DHT22;9021;50.882;4.326;2023-08-08T11:10:44;22.00;99.90
17795;DHT22;9021;50.882;4.326;2023-08-08T11:13:09;22.80;99.90
17795;DHT22;9021;50.882;4.326;2023-08-08T11:15:35;23.00;99.90
17795;DHT22;9021;50.882;4.326;2023-08-08T11:18:01;23.40;99.90
17795;DHT22;9021;50.882;4.326;2023-08-08T11:20:31;23.40;99.90
17795;DHT22;9021;50.882;4.326;2023-08-08T11:22:57;23.30;99.90
17795;DHT22;9021;50.882;4.326;2023-08-08T11:25:25;23.00;99.90
17795;DHT22;9021;50.882;4.326;2023-08-08T11:27:51;23.00;99.90
17795;DHT22;9021;50.882;4.326;2023-08-08T11:30:17;22.90;99.90
17795;DHT22;9021;50.882;4.326;2023-08-08T11:32:42;22.80;99.90
17795;DHT22;9021;50.882;4.326;2023-08-08T11:35:08;22.70;99.90
17795;DHT22;9021;50.882;4.326;2023-08-08T11:37:34;22.70;99.90
17795;DHT22;9021;50.882;4.326;2023-08-08T11:39:59;22.60;99.90
17795;DHT22;9021;50.882;4.326;2023-08-08T11:42:25;22.50;99.90
17795;DHT22;9021;50.882;4.326;2023-08-08T11:44:51;22.50;99.90
17795;DHT22;9021;50.882;4.326;2023-08-08T11:47:17;22.70;99.90
17795;DHT22;9021;50.882;4.326;2023-08-08T11:49:49;22.80;99.90
17795;DHT22;9021;50.882;4.326;2023-08-08T11:52:17;23.00;99.90
17795;DHT22;9021;50.882;4.326;2023-08-08T11:54:43;23.10;99.90
17795;DHT22;9021;50.882;4.326;2023-08-08T11:57:09;23.10;99.90
17795;DHT22;9021;50.882;4.326;2023-08-08T11:59:35;23.00;99.90
17795;DHT22;9021;50.882;4.326;2023-08-08T12:02:01;23.10;99.90
17795;DHT22;9021;50.882;4.326;2023-08-08T12:04:27;23.00;99.90
17795;DHT22;9021;50.882;4.326;2023-08-08T12:07:00;22.90;99.90
17795;DHT22;9021;50.882;4.326;2023-08-08T12:09:28;22.80;99.90
17795;DHT22;9021;50.882;4.326;2023-08-08T12:11:54;22.60;99.90
17795;DHT22;9021;50.882;4.326;2023-08-08T12:14:19;22.40;99.90
17795;DHT22;9021;50.882;4.326;2023-08-08T12:16:45;22.50;99.90
17795;DHT22;9021;50.882;4.326;2023-08-08T12:19:10;22.90;99.90
17795;DHT22;9021;50.882;4.326;2023-08-08T12:21:36;23.20;99.90
17795;DHT22;9021;50.882;4.326;2023-08-08T12:24:02;23.60;99.50
17795;DHT22;9021;50.882;4.326;2023-08-08T12:26:27;24.00;99.40
17795;DHT22;9021;50.882;4.326;2023-08-08T12:28:53;24.20;99.60
17795;DHT22;9021;50.882;4.326;2023-08-08T12:31:20;24.30;99.90
17795;DHT22;9021;50.882;4.326;2023-08-08T12:33:45;24.40;99.30
17795;DHT22;9021;50.882;4.326;2023-08-08T12:36:12;24.60;98.20
17795;DHT22;9021;50.882;4.326;2023-08-08T12:38:37;24.80;97.80
17795;DHT22;9021;50.882;4.326;2023-08-08T12:41:03;24.50;98.70
17795;DHT22;9021;50.882;4.326;2023-08-08T12:43:28;24.10;98.50
17795;DHT22;9021;50.882;4.326;2023-08-08T12:45:54;24.00;98.70
17795;DHT22;9021;50.882;4.326;2023-08-08T12:48:20;24.00;98.70
17795;DHT22;9021;50.882;4.326;2023-08-08T12:50:45;24.00;98.80
17795;DHT22;9021;50.882;4.326;2023-08-08T12:53:11;24.00;99.00
17795;DHT22;9021;50.882;4.326;2023-08-08T12:55:36;24.20;98.90
17795;DHT22;9021;50.882;4.326;2023-08-08T12:58:03;24.00;98.30
17795;DHT22;9021;50.882;4.326;2023-08-08T13:00:29;23.90;98.20
17795;DHT22;9021;50.882;4.326;2023-08-08T13:02:54;23.70;98.70
17795;DHT22;9021;50.882;4.326;2023-08-08T13:05:20;23.40;98.70
17795;DHT22;9021;50.882;4.326;2023-08-08T13:07:46;23.10;99.10
17795;DHT22;9021;50.882;4.326;2023-08-08T13:10:11;23.10;99.80
17795;DHT22;9021;50.882;4.326;2023-08-08T13:12:37;23.30;99.70
17795;DHT22;9021;50.882;4.326;2023-08-08T13:15:03;23.40;98.90
17795;DHT22;9021;50.882;4.326;2023-08-08T13:17:28;23.60;99.50
17795;DHT22;9021;50.882;4.326;2023-08-08T13:19:54;23.50;99.00
17795;DHT22;9021;50.882;4.326;2023-08-08T13:22:20;23.50;99.10
17795;DHT22;9021;50.882;4.326;2023-08-08T13:24:45;23.30;99.50
17795;DHT22;9021;50.882;4.326;2023-08-08T13:27:11;23.10;99.90
17795;DHT22;9021;50.882;4.326;2023-08-08T13:29:36;22.90;99.90
17795;DHT22;9021;50.882;4.326;2023-08-08T13:32:02;22.80;99.90
17795;DHT22;9021;50.882;4.326;2023-08-08T13:34:27;22.80;99.90
17795;DHT22;9021;50.882;4.326;2023-08-08T13:36:53;22.70;99.90
17795;DHT22;9021;50.882;4.326;2023-08-08T13:39:18;22.80;99.90
17795;DHT22;9021;50.882;4.326;2023-08-08T13:41:44;23.00;99.90
17795;DHT22;9021;50.882;4.326;2023-08-08T13:44:09;23.20;99.90
17795;DHT22;9021;50.882;4.326;2023-08-08T13:46:35;23.30;99.90
17795;DHT22;9021;50.882;4.326;2023-08-08T13:49:00;23.40;99.10
17795;DHT22;9021;50.882;4.326;2023-08-08T13:51:26;23.40;99.40
17795;DHT22;9021;50.882;4.326;2023-08-08T13:53:51;23.40;99.10
17795;DHT22;9021;50.882;4.326;2023-08-08T13:56:17;23.50;99.20
17795;DHT22;9021;50.882;4.326;2023-08-08T13:58:43;23.50;99.10
17795;DHT22;9021;50.882;4.326;2023-08-08T14:01:08;23.40;98.80
17795;DHT22;9021;50.882;4.326;2023-08-08T14:03:34;23.60;98.80
17795;DHT22;9021;50.882;4.326;2023-08-08T14:05:59;23.20;98.80
17795;DHT22;9021;50.882;4.326;2023-08-08T14:08:25;23.10;99.10
17795;DHT22;9021;50.882;4.326;2023-08-08T14:10:50;23.00;98.90
17795;DHT22;9021;50.882;4.326;2023-08-08T14:13:16;22.90;99.00
17795;DHT22;9021;50.882;4.326;2023-08-08T14:15:41;22.80;99.20
17795;DHT22;9021;50.882;4.326;2023-08-08T14:18:07;22.60;99.50
17795;DHT22;9021;50.882;4.326;2023-08-08T14:20:33;22.40;99.90
17795;DHT22;9021;50.882;4.326;2023-08-08T14:22:58;22.30;99.80
17795;DHT22;9021;50.882;4.326;2023-08-08T14:25:24;22.10;99.80
17795;DHT22;9021;50.882;4.326;2023-08-08T14:27:50;22.00;99.90
17795;DHT22;9021;50.882;4.326;2023-08-08T14:30:16;22.00;99.90
17795;DHT22;9021;50.882;4.326;2023-08-08T14:32:41;21.80;99.90
17795;DHT22;9021;50.882;4.326;2023-08-08T14:35:07;21.70;99.90
17795;DHT22;9021;50.882;4.326;2023-08-08T14:37:34;21.70;99.90
17795;DHT22;9021;50.882;4.326;2023-08-08T14:40:00;21.60;99.90
17795;DHT22;9021;50.882;4.326;2023-08-08T14:42:25;21.60;99.90
17795;DHT22;9021;50.882;4.326;2023-08-08T14:44:51;21.60;99.90
17795;DHT22;9021;50.882;4.326;2023-08-08T14:47:16;21.60;99.90
17795;DHT22;9021;50.882;4.326;2023-08-08T14:49:42;21.50;99.90
17795;DHT22;9021;50.882;4.326;2023-08-08T14:52:07;21.40;99.90
17795;DHT22;9021;50.882;4.326;2023-08-08T14:54:34;21.50;99.90
17795;DHT22;9021;50.882;4.326;2023-08-08T14:56:59;21.60;99.90
17795;DHT22;9021;50.882;4.326;2023-08-08T14:59:27;21.60;99.90
17795;DHT22;9021;50.882;4.326;2023-08-08T15:01:52;21.50;99.90
17795;DHT22;9021;50.882;4.326;2023-08-08T15:04:18;21.50;99.90
17795;DHT22;9021;50.882;4.326;2023-08-08T15:06:44;21.50;99.90
17795;DHT22;9021;50.882;4.326;2023-08-08T15:09:09;21.40;99.90
17795;DHT22;9021;50.882;4.326;2023-08-08T15:11:35;21.40;99.90
17795;DHT22;9021;50.882;4.326;2023-08-08T15:14:00;21.40;99.90
17795;DHT22;9021;50.882;4.326;2023-08-08T15:16:26;21.50;99.90
17795;DHT22;9021;50.882;4.326;2023-08-08T15:18:51;21.60;99.90
17795;DHT22;9021;50.882;4.326;2023-08-08T15:21:17;21.60;99.90
17795;DHT22;9021;50.882;4.326;2023-08-08T15:23:45;18.70;99.90
17795;DHT22;9021;50.882;4.326;2023-08-08T15:26:10;21.40;99.90
17795;DHT22;9021;50.882;4.326;2023-08-08T15:28:37;21.30;99.90
17795;DHT22;9021;50.882;4.326;2023-08-08T15:31:02;21.20;99.90
17795;DHT22;9021;50.882;4.326;2023-08-08T15:33:28;21.10;99.90
17795;DHT22;9021;50.882;4.326;2023-08-08T15:35:54;21.10;99.90
17795;DHT22;9021;50.882;4.326;2023-08-08T15:38:19;21.10;99.90
17795;DHT22;9021;50.882;4.326;2023-08-08T15:40:45;21.10;99.90